Time;durP1;ratioP1;P1;durP2;ratioP2;P2;SDS_P1;SDS_P2;PMS_P1;PMS_P2;Temp;Humidity;BMP_temperature;BMP_pressure;BME280_temperature;BME280_humidity;BME280_pressure;Samples;Min_cycle;Max_cycle;Signal;HPM_P1;HPM_P2
2021/03/16 00:02:12;;;;;;;5.73;4.77;;;;;;;6.16;66.64;95687.38;6895150;28;20226;-70
2021/03/16 00:05:32;;;;;;;6.30;4.93;;;;;;;6.15;66.92;95690.94;6899274;28;20221;-69
2021/03/16 00:08:55;;;;;;;7.57;4.77;;;;;;;6.05;66.65;95693.31;6905722;28;20220;-69
2021/03/16 00:12:15;;;;;;;5.27;4.73;;;;;;;6.00;67.04;95698.06;6897264;28;20220;-68
2021/03/16 00:15:38;;;;;;;9.53;5.33;;;;;;;6.03;67.13;95697.88;6910937;28;20235;-68
2021/03/16 00:18:58;;;;;;;6.57;5.00;;;;;;;6.04;66.97;95700.38;6909242;28;20989;-69
2021/03/16 00:22:19;;;;;;;6.60;5.10;;;;;;;5.99;66.81;95709.53;6905911;28;20307;-70
2021/03/16 00:25:39;;;;;;;5.47;4.97;;;;;;;5.99;67.40;95710.38;6901415;28;20269;-68
2021/03/16 00:29:00;;;;;;;5.90;5.13;;;;;;;6.07;67.37;95716.97;6922124;28;20242;-68
2021/03/16 00:32:20;;;;;;;6.30;5.30;;;;;;;6.15;67.16;95715.53;6892267;28;20247;-68
2021/03/16 00:35:40;;;;;;;6.13;5.33;;;;;;;6.08;66.82;95718.66;6910899;28;20587;-69
2021/03/16 00:39:02;;;;;;;7.70;5.20;;;;;;;5.97;66.55;95724.63;6903094;28;20240;-69
2021/03/16 00:42:22;;;;;;;5.17;4.60;;;;;;;5.92;66.56;95730.19;6888563;28;21462;-68
2021/03/16 00:45:43;;;;;;;5.00;4.23;;;;;;;5.94;66.07;95728.28;6916814;28;20262;-69
2021/03/16 00:49:03;;;;;;;5.17;4.30;;;;;;;5.87;65.91;95739.31;6917677;28;20402;-69
2021/03/16 00:52:26;;;;;;;4.47;4.00;;;;;;;5.76;65.41;95732.06;6892652;28;20283;-68
2021/03/16 00:55:47;;;;;;;4.53;4.13;;;;;;;5.68;64.97;95733.47;6897809;28;20215;-69
2021/03/16 00:59:08;;;;;;;4.70;3.80;;;;;;;5.55;64.79;95739.50;6898625;28;20222;-68
2021/03/16 01:02:30;;;;;;;4.33;3.90;;;;;;;5.48;64.75;95747.88;6910835;28;20241;-69
2021/03/16 01:05:52;;;;;;;4.43;3.97;;;;;;;5.44;65.01;95743.69;6907550;28;20219;-68
2021/03/16 01:09:13;;;;;;;7.27;4.00;;;;;;;5.42;64.64;95742.97;6905062;28;20217;-69
2021/03/16 01:12:36;;;;;;;5.00;4.23;;;;;;;5.39;64.02;95740.50;6905346;28;20324;-68
2021/03/16 01:15:56;;;;;;;5.30;4.27;;;;;;;5.34;64.16;95745.19;6911571;28;20705;-69
2021/03/16 01:19:17;;;;;;;4.00;3.60;;;;;;;5.37;63.94;95743.25;6917399;28;20215;-69
2021/03/16 01:22:37;;;;;;;5.33;3.50;;;;;;;5.43;64.15;95747.31;6911785;28;20222;-69
2021/03/16 01:25:57;;;;;;;5.43;3.90;;;;;;;5.50;64.21;95751.25;6907315;28;20732;-68
2021/03/16 01:29:18;;;;;;;4.57;4.03;;;;;;;5.47;63.65;95754.06;6917320;28;20315;-68
2021/03/16 01:32:39;;;;;;;5.93;4.03;;;;;;;5.46;64.18;95745.31;6915499;28;20755;-68
2021/03/16 01:35:59;;;;;;;5.87;4.07;;;;;;;5.47;63.97;95752.28;6913277;28;20213;-70
2021/03/16 01:39:19;;;;;;;7.03;4.27;;;;;;;5.48;63.75;95763.69;6902374;28;20216;-71
2021/03/16 01:42:41;;;;;;;5.53;3.87;;;;;;;5.51;63.54;95769.59;6903710;28;20254;-70
2021/03/16 01:46:02;;;;;;;5.13;3.77;;;;;;;5.53;63.56;95762.44;6910446;28;20220;-68
2021/03/16 01:49:23;;;;;;;7.50;3.73;;;;;;;5.57;63.15;95765.75;6912055;28;20220;-69
2021/03/16 01:52:44;;;;;;;4.70;3.67;;;;;;;5.58;63.00;95765.63;6902739;28;20328;-68
2021/03/16 01:56:06;;;;;;;5.80;3.97;;;;;;;5.56;62.72;95764.03;6897429;28;20593;-68
2021/03/16 01:59:31;;;;;;;5.90;3.33;;;;;;;5.51;62.54;95759.06;6891993;28;20742;-68
2021/03/16 02:02:52;;;;;;;5.10;3.60;;;;;;;5.44;62.68;95764.78;6906315;28;20220;-68
2021/03/16 02:06:18;;;;;;;5.33;4.13;;;;;;;5.43;62.65;95769.19;6901679;28;20215;-69
2021/03/16 02:10:01;;;;;;;4.23;3.63;;;;;;;5.52;62.92;95773.09;6875532;28;20228;-68
2021/03/16 02:13:58;;;;;;;4.60;3.57;;;;;;;5.56;62.31;95771.94;6900288;28;20260;-68
2021/03/16 02:17:31;;;;;;;7.83;3.77;;;;;;;5.60;62.03;95773.44;6915227;28;20635;-69
2021/03/16 02:20:59;;;;;;;5.17;4.23;;;;;;;5.58;62.07;95776.16;6914052;28;20220;-68
2021/03/16 02:24:31;;;;;;;6.53;4.57;;;;;;;5.53;62.52;95775.59;6912445;28;20224;-70
2021/03/16 02:28:10;;;;;;;4.60;3.87;;;;;;;5.53;62.37;95778.22;6908452;28;20336;-69
2021/03/16 02:31:30;;;;;;;7.53;4.10;;;;;;;5.53;62.51;95782.69;6912011;28;20754;-69
2021/03/16 02:34:54;;;;;;;4.87;3.63;;;;;;;5.50;62.46;95785.47;6914650;28;20227;-68
2021/03/16 02:38:15;;;;;;;4.30;3.90;;;;;;;5.53;62.67;95778.22;6890383;28;20230;-68
2021/03/16 02:41:37;;;;;;;5.00;3.87;;;;;;;5.56;62.20;95775.44;6876000;28;20224;-68
2021/03/16 02:45:00;;;;;;;7.10;4.13;;;;;;;5.56;61.70;95779.84;6911902;28;20306;-68
2021/03/16 02:48:24;;;;;;;8.40;4.30;;;;;;;5.57;61.94;95778.91;6938004;28;20239;-68
2021/03/16 02:51:48;;;;;;;5.67;4.47;;;;;;;5.59;61.93;95792.81;6912916;28;20258;-69
2021/03/16 02:55:09;;;;;;;7.03;4.10;;;;;;;5.58;62.08;95791.97;6913120;28;20250;-68
2021/03/16 02:58:32;;;;;;;5.73;4.30;;;;;;;5.63;61.89;95790.88;6893442;28;20224;-69
2021/03/16 03:01:53;;;;;;;6.53;3.90;;;;;;;5.66;61.81;95794.16;6898977;28;20217;-68
2021/03/16 03:05:14;;;;;;;5.93;4.13;;;;;;;5.65;61.67;95792.47;6892638;28;20228;-68
2021/03/16 03:08:35;;;;;;;5.00;4.43;;;;;;;5.67;61.57;95800.28;6917648;28;20227;-69
2021/03/16 03:11:55;;;;;;;7.23;4.23;;;;;;;5.70;61.80;95793.03;6901160;28;20221;-69
2021/03/16 03:15:18;;;;;;;5.30;3.57;;;;;;;5.71;61.70;95802.63;6910571;28;20221;-68
2021/03/16 03:18:38;;;;;;;4.07;3.47;;;;;;;5.72;61.68;95798.22;6908854;28;20216;-68
2021/03/16 03:22:14;;;;;;;6.03;4.00;;;;;;;5.66;61.45;95803.84;6913896;28;20251;-68
2021/03/16 03:25:44;;;;;;;8.47;4.07;;;;;;;5.63;61.78;95792.53;6914479;28;20234;-68
2021/03/16 03:29:09;;;;;;;5.47;3.50;;;;;;;5.67;61.98;95793.22;6913829;28;20255;-69
2021/03/16 03:32:30;;;;;;;4.77;3.80;;;;;;;5.67;61.42;95793.22;6916386;28;20235;-68
2021/03/16 03:35:50;;;;;;;6.23;3.77;;;;;;;5.65;61.56;95792.47;6911234;28;20858;-68
2021/03/16 03:39:13;;;;;;;4.30;3.90;;;;;;;5.63;61.34;95797.81;6904431;28;20300;-68
2021/03/16 03:42:37;;;;;;;6.07;3.77;;;;;;;5.56;61.26;95791.25;6907953;28;20223;-69
2021/03/16 03:45:58;;;;;;;4.10;3.37;;;;;;;5.50;61.15;95794.25;6890339;28;20263;-70
2021/03/16 03:49:19;;;;;;;4.17;3.13;;;;;;;5.53;61.67;95794.03;6898901;28;20726;-70
2021/03/16 03:52:40;;;;;;;4.83;3.30;;;;;;;5.53;61.43;95786.13;6886491;28;20312;-70
2021/03/16 03:56:02;;;;;;;5.53;3.60;;;;;;;5.55;61.53;95797.44;6912822;28;20307;-69
2021/03/16 03:59:24;;;;;;;4.20;3.20;;;;;;;5.58;61.73;95806.97;6919045;28;20211;-68
2021/03/16 04:02:45;;;;;;;5.40;3.00;;;;;;;5.61;61.43;95809.41;6904203;28;20311;-69
2021/03/16 04:06:05;;;;;;;6.27;3.60;;;;;;;5.64;61.17;95814.47;6909343;28;20298;-70
2021/03/16 04:09:28;;;;;;;4.73;3.30;;;;;;;5.63;61.42;95822.50;6885897;28;20227;-68
2021/03/16 04:12:48;;;;;;;4.50;3.63;;;;;;;5.60;61.04;95827.00;6919409;28;20601;-68
2021/03/16 04:16:09;;;;;;;6.70;3.53;;;;;;;5.56;61.03;95832.53;6903316;28;20758;-69
2021/03/16 04:19:30;;;;;;;4.47;3.43;;;;;;;5.50;60.92;95839.03;6915713;28;20306;-68
2021/03/16 04:22:50;;;;;;;4.40;3.77;;;;;;;5.41;61.26;95841.34;6912468;28;20324;-68
2021/03/16 04:26:11;;;;;;;7.30;3.80;;;;;;;5.38;61.99;95850.28;6919088;28;20220;-69
2021/03/16 04:29:31;;;;;;;6.67;4.47;;;;;;;5.35;61.92;95855.72;6924754;28;20319;-69
2021/03/16 04:32:51;;;;;;;5.47;3.63;;;;;;;5.40;62.37;95861.56;6913439;28;20219;-68
2021/03/16 04:36:12;;;;;;;6.87;4.40;;;;;;;5.41;61.98;95858.00;6915388;28;20224;-71
2021/03/16 04:39:32;;;;;;;4.40;3.70;;;;;;;5.36;61.94;95867.97;6914646;28;20295;-68
2021/03/16 04:42:52;;;;;;;5.53;4.00;;;;;;;5.30;62.25;95855.16;6910419;28;20231;-66
2021/03/16 04:46:13;;;;;;;7.87;4.30;;;;;;;5.14;62.19;95867.50;6913957;28;20223;-68
2021/03/16 04:49:33;;;;;;;7.97;3.77;;;;;;;5.12;62.48;95874.66;6915270;28;20629;-69
2021/03/16 04:52:54;;;;;;;5.77;3.63;;;;;;;5.10;62.55;95884.41;6902439;28;20619;-68
2021/03/16 04:56:14;;;;;;;5.93;3.97;;;;;;;5.11;62.93;95883.50;6913763;28;20314;-68
2021/03/16 04:59:34;;;;;;;7.90;4.40;;;;;;;5.06;62.99;95893.44;6915059;28;20228;-69
2021/03/16 05:02:57;;;;;;;6.03;3.70;;;;;;;5.03;63.10;95896.25;6919486;28;20223;-67
2021/03/16 05:06:18;;;;;;;5.00;4.43;;;;;;;5.02;63.28;95895.41;6912650;28;20234;-72
2021/03/16 05:09:38;;;;;;;5.20;4.10;;;;;;;5.05;62.92;95891.72;6914489;28;20241;-70
2021/03/16 05:12:59;;;;;;;4.53;3.97;;;;;;;5.05;63.07;95892.56;6909225;28;20228;-69
2021/03/16 05:16:21;;;;;;;5.93;4.10;;;;;;;5.10;63.37;95905.47;6914722;28;20306;-69
2021/03/16 05:19:41;;;;;;;7.07;4.20;;;;;;;5.17;63.43;95912.09;6910040;28;20266;-68
2021/03/16 05:23:04;;;;;;;5.40;4.10;;;;;;;5.20;63.14;95904.00;6894642;28;20222;-68
2021/03/16 05:26:25;;;;;;;5.73;4.03;;;;;;;5.19;63.27;95912.84;6897394;28;20226;-68
2021/03/16 05:29:45;;;;;;;7.77;4.10;;;;;;;5.06;62.92;95920.59;6924469;28;20231;-67
2021/03/16 05:33:06;;;;;;;5.00;3.97;;;;;;;5.10;63.37;95918.63;6917312;28;20230;-68
2021/03/16 05:36:26;;;;;;;6.10;4.10;;;;;;;5.14;63.19;95926.28;6915491;28;20232;-68
2021/03/16 05:39:49;;;;;;;5.53;4.30;;;;;;;5.16;63.44;95929.69;6916066;28;20243;-67
2021/03/16 05:43:10;;;;;;;5.57;4.13;;;;;;;5.17;63.17;95936.66;6917451;28;20220;-70
2021/03/16 05:46:31;;;;;;;6.27;4.03;;;;;;;5.08;63.61;95923.97;6911864;28;20281;-68
2021/03/16 05:49:54;;;;;;;4.30;3.90;;;;;;;5.00;64.01;95925.34;6918312;28;20285;-70
2021/03/16 05:53:14;;;;;;;5.07;4.07;;;;;;;5.02;64.58;95934.03;6897346;28;20262;-69
2021/03/16 05:56:35;;;;;;;10.70;4.80;;;;;;;5.10;64.77;95939.69;6909345;28;20219;-68
2021/03/16 06:00:00;;;;;;;5.80;3.87;;;;;;;5.11;64.79;95928.25;6917272;28;20295;-70
2021/03/16 06:03:20;;;;;;;6.27;3.80;;;;;;;5.16;64.33;95934.09;6915387;28;20216;-70
2021/03/16 06:06:41;;;;;;;4.50;3.60;;;;;;;5.13;63.97;95939.53;6917251;28;20254;-70
2021/03/16 06:10:02;;;;;;;7.27;3.67;;;;;;;5.07;63.54;95946.00;6913856;28;20232;-71
2021/03/16 06:13:24;;;;;;;6.73;3.67;;;;;;;5.12;63.71;95953.63;6916064;28;20223;-69
2021/03/16 06:16:45;;;;;;;6.00;3.57;;;;;;;5.22;63.69;95959.22;6918564;28;20224;-68
2021/03/16 06:20:06;;;;;;;8.03;3.57;;;;;;;5.24;63.06;95959.97;6912204;28;20241;-69
2021/03/16 06:23:34;;;;;;;4.07;3.27;;;;;;;5.28;62.72;95969.41;6910004;28;20232;-67
2021/03/16 06:26:55;;;;;;;7.00;4.07;;;;;;;5.36;62.99;95968.03;6909245;28;20224;-68
2021/03/16 06:30:24;;;;;;;4.90;3.30;;;;;;;5.40;62.54;95968.72;6933889;28;20274;-67
2021/03/16 06:33:45;;;;;;;3.90;3.10;;;;;;;5.31;61.86;95969.25;6907117;28;20228;-67
2021/03/16 06:37:05;;;;;;;4.20;2.87;;;;;;;5.28;62.26;95972.06;6913269;28;20611;-67
2021/03/16 06:40:30;;;;;;;4.57;3.00;;;;;;;5.30;62.22;95978.06;6912720;28;20223;-69
2021/03/16 06:43:58;;;;;;;5.87;3.03;;;;;;;5.35;62.06;95979.50;6910750;28;20233;-69
2021/03/16 06:47:19;;;;;;;5.73;3.03;;;;;;;5.49;62.23;95978.72;6906610;28;20220;-71
2021/03/16 06:50:40;;;;;;;3.97;3.33;;;;;;;5.56;62.24;95982.69;6910105;28;20256;-70
2021/03/16 06:54:11;;;;;;;4.37;3.00;;;;;;;5.66;61.38;95986.50;6906314;28;20225;-69
2021/03/16 06:57:32;;;;;;;6.07;3.43;;;;;;;5.78;61.27;95995.50;6896487;28;20212;-69
2021/03/16 07:01:09;;;;;;;4.70;2.50;;;;;;;5.89;61.08;95990.44;6917590;28;20219;-70
2021/03/16 07:04:29;;;;;;;4.37;2.77;;;;;;;6.01;61.14;96005.56;6893537;28;20312;-68
2021/03/16 07:07:52;;;;;;;4.23;2.40;;;;;;;6.05;60.72;96004.44;6916333;28;20232;-68
2021/03/16 07:11:17;;;;;;;4.57;2.40;;;;;;;6.13;60.16;96014.53;6908500;28;20215;-69
2021/03/16 07:14:38;;;;;;;2.50;2.30;;;;;;;6.18;60.10;96015.13;6913484;28;20251;-68
2021/03/16 07:17:58;;;;;;;5.63;2.83;;;;;;;6.25;60.02;96022.56;6893865;28;20212;-68
2021/03/16 07:21:27;;;;;;;5.73;3.27;;;;;;;6.34;60.04;96029.91;6915801;28;20228;-68
2021/03/16 07:24:47;;;;;;;5.07;2.70;;;;;;;6.40;59.56;96033.97;6897829;28;20215;-69
2021/03/16 07:28:08;;;;;;;3.10;2.70;;;;;;;6.45;59.60;96042.47;6915457;28;20239;-69
2021/03/16 07:31:34;;;;;;;5.33;2.80;;;;;;;6.58;59.59;96045.25;6914343;28;20225;-69
2021/03/16 07:35:00;;;;;;;5.80;2.80;;;;;;;6.69;59.39;96040.97;6919382;28;20215;-68
2021/03/16 07:38:24;;;;;;;3.33;2.97;;;;;;;6.80;59.23;96046.47;6901560;28;20282;-69
2021/03/16 07:41:46;;;;;;;3.97;2.67;;;;;;;6.98;59.27;96046.28;6894263;28;20220;-68
2021/03/16 07:45:09;;;;;;;6.47;3.60;;;;;;;7.16;59.29;96053.91;6911995;28;20680;-68
2021/03/16 07:48:30;;;;;;;6.57;3.60;;;;;;;7.29;58.38;96054.81;6913478;28;20971;-69
2021/03/16 07:51:50;;;;;;;7.97;3.13;;;;;;;7.41;58.15;96053.19;6910619;28;20768;-69
2021/03/16 07:55:22;;;;;;;6.00;2.70;;;;;;;7.57;57.49;96053.91;6913205;28;20594;-68
2021/03/16 07:58:46;;;;;;;5.00;2.60;;;;;;;7.71;57.57;96066.25;6914340;28;20262;-70
2021/03/16 08:02:06;;;;;;;4.53;2.87;;;;;;;7.86;56.93;96065.25;6883157;28;20233;-70
2021/03/16 08:05:27;;;;;;;5.33;2.73;;;;;;;8.11;57.39;96060.03;6883458;28;20679;-69
2021/03/16 08:08:49;;;;;;;5.50;2.70;;;;;;;8.36;56.95;96069.88;6864900;28;20240;-71
2021/03/16 08:12:26;;;;;;;5.30;2.77;;;;;;;8.55;55.57;96064.19;6883308;28;20315;-70
2021/03/16 08:15:50;;;;;;;3.90;2.57;;;;;;;8.55;55.18;96072.16;6881016;28;20217;-70
2021/03/16 08:19:18;;;;;;;3.77;2.50;;;;;;;8.55;54.57;96065.03;6896159;28;20213;-69
2021/03/16 08:22:38;;;;;;;5.07;2.77;;;;;;;8.56;54.51;96072.03;6880850;28;20312;-70
2021/03/16 08:26:02;;;;;;;4.57;2.73;;;;;;;8.75;55.35;96073.44;6881876;28;20222;-69
2021/03/16 08:29:27;;;;;;;6.07;2.90;;;;;;;8.81;54.36;96081.78;6869702;28;20333;-70
2021/03/16 08:32:48;;;;;;;7.03;2.87;;;;;;;9.08;54.70;96076.38;6882602;28;20225;-72
2021/03/16 08:36:10;;;;;;;5.83;2.50;;;;;;;9.12;53.78;96080.50;6883681;28;20220;-70
2021/03/16 08:39:30;;;;;;;4.70;2.33;;;;;;;9.20;53.64;96085.28;6884902;28;20220;-70
2021/03/16 08:42:52;;;;;;;3.93;2.30;;;;;;;9.28;53.42;96082.94;6883036;28;20312;-71
2021/03/16 08:46:15;;;;;;;3.30;2.37;;;;;;;9.27;52.78;96095.34;6886943;28;20642;-72
2021/03/16 08:49:41;;;;;;;4.97;2.73;;;;;;;9.45;52.97;96086.09;6889014;28;20253;-70
2021/03/16 08:53:02;;;;;;;4.23;2.50;;;;;;;9.67;52.98;96089.84;6890045;28;20735;-71
2021/03/16 08:56:23;;;;;;;4.77;2.60;;;;;;;9.63;51.67;96086.56;6921846;28;20337;-73
2021/03/16 08:59:52;;;;;;;6.13;2.30;;;;;;;9.64;51.70;96090.94;6914568;28;20578;-71
2021/03/16 09:03:15;;;;;;;4.50;2.70;;;;;;;9.73;51.53;96092.91;6916333;28;20216;-72
2021/03/16 09:06:35;;;;;;;6.50;2.43;;;;;;;9.90;51.20;96102.31;6898187;28;20225;-72
2021/03/16 09:10:12;;;;;;;3.67;2.00;;;;;;;9.98;51.37;96099.94;6900803;28;20249;-71
2021/03/16 09:13:32;;;;;;;4.43;2.00;;;;;;;9.80;50.42;96102.13;6921272;28;20285;-72
2021/03/16 09:16:55;;;;;;;3.73;2.23;;;;;;;9.54;50.13;96110.25;6909194;28;20222;-72
2021/03/16 09:20:27;;;;;;;3.73;1.53;;;;;;;9.49;50.12;96110.59;6909038;28;20252;-71
2021/03/16 09:23:48;;;;;;;3.20;1.77;;;;;;;9.40;50.80;96117.41;6910046;28;20790;-72
2021/03/16 09:27:11;;;;;;;3.33;1.73;;;;;;;9.72;51.12;96111.59;6913823;28;20317;-72
2021/03/16 09:30:44;;;;;;;3.40;2.60;;;;;;;10.11;50.23;96105.22;6916470;28;20597;-71
2021/03/16 09:34:05;;;;;;;3.90;2.10;;;;;;;11.02;49.58;96108.94;6907186;28;20271;-72
2021/03/16 09:37:28;;;;;;;3.17;1.93;;;;;;;11.66;47.36;96114.56;6912043;28;20213;-73
2021/03/16 09:40:49;;;;;;;5.57;1.97;;;;;;;12.02;46.31;96103.66;6913580;28;20225;-72
2021/03/16 09:44:10;;;;;;;2.90;1.60;;;;;;;12.32;44.95;96114.44;6905855;28;20224;-73
2021/03/16 09:47:32;;;;;;;3.67;1.50;;;;;;;12.70;45.07;96097.97;6907820;28;20278;-72
2021/03/16 09:50:54;;;;;;;5.17;1.50;;;;;;;12.93;42.83;96098.66;6905356;28;20273;-73
2021/03/16 09:54:14;;;;;;;3.97;1.23;;;;;;;12.54;41.64;96097.53;6896923;28;20228;-72
2021/03/16 09:57:37;;;;;;;4.83;1.60;;;;;;;12.38;42.96;96105.09;6911020;28;20235;-73
2021/03/16 10:01:01;;;;;;;2.27;1.60;;;;;;;12.37;43.04;96103.44;6898531;28;20693;-76
2021/03/16 10:04:21;;;;;;;3.70;1.40;;;;;;;12.18;42.10;96109.41;6897775;28;20295;-76
2021/03/16 10:07:52;;;;;;;2.17;1.23;;;;;;;12.13;42.13;96105.41;6911697;28;20231;-76
2021/03/16 10:11:12;;;;;;;2.77;1.20;;;;;;;12.18;41.88;96106.75;6907297;28;20223;-74
2021/03/16 10:14:32;;;;;;;3.10;1.43;;;;;;;12.95;39.07;96091.41;6921509;28;20298;-76
2021/03/16 10:17:54;;;;;;;3.23;1.50;;;;;;;13.58;38.85;96089.53;6899323;28;20222;-77
2021/03/16 10:21:15;;;;;;;6.50;1.77;;;;;;;14.52;37.70;96083.75;6915749;28;20220;-75
2021/03/16 10:24:35;;;;;;;4.00;1.73;;;;;;;14.57;38.61;96098.38;6906701;28;20621;-75
2021/03/16 10:28:04;;;;;;;4.57;1.70;;;;;;;14.70;37.50;96098.09;6910822;28;20224;-76
2021/03/16 10:31:25;;;;;;;2.80;1.50;;;;;;;14.44;36.60;96097.78;6916949;28;20235;-77
2021/03/16 10:34:46;;;;;;;3.30;2.40;;;;;;;14.83;35.71;96092.47;6918180;28;20250;-77
2021/03/16 10:38:09;;;;;;;3.27;2.10;;;;;;;15.06;35.78;96080.47;6912378;28;20220;-74
2021/03/16 10:41:29;;;;;;;4.67;1.70;;;;;;;16.80;33.06;96070.59;6905438;28;20582;-74
2021/03/16 10:44:52;;;;;;;3.80;1.40;;;;;;;17.17;31.64;96070.41;6912156;28;20741;-75
2021/03/16 10:48:12;;;;;;;5.20;1.57;;;;;;;18.05;31.76;96080.03;6902203;28;20312;-75
2021/03/16 10:51:33;;;;;;;5.90;1.73;;;;;;;16.78;31.82;96077.97;6893777;28;20307;-75
2021/03/16 10:54:53;;;;;;;3.43;1.30;;;;;;;15.42;33.05;96082.38;6896552;28;20215;-74
2021/03/16 10:58:14;;;;;;;3.67;1.50;;;;;;;14.40;33.21;96068.81;6902608;28;20217;-75
2021/03/16 11:01:34;;;;;;;2.67;1.47;;;;;;;13.50;35.14;96081.34;6909122;28;20627;-75
2021/03/16 11:04:57;;;;;;;6.20;1.50;;;;;;;13.78;36.43;96069.97;6904999;28;20299;-73
2021/03/16 11:08:20;;;;;;;3.13;1.30;;;;;;;15.84;34.57;96072.06;6903973;28;20308;-74
2021/03/16 11:11:41;;;;;;;4.53;1.40;;;;;;;15.94;33.28;96069.38;6912184;28;20227;-75
2021/03/16 11:15:02;;;;;;;3.60;1.40;;;;;;;15.46;33.51;96064.16;6888788;28;20309;-75
2021/03/16 11:18:22;;;;;;;5.10;1.70;;;;;;;14.04;34.85;96067.59;6911560;28;20235;-75
2021/03/16 11:21:43;;;;;;;2.77;1.37;;;;;;;12.96;37.06;96085.09;6914755;28;20211;-74
2021/03/16 11:25:04;;;;;;;4.20;1.70;;;;;;;12.65;38.21;96084.19;6910063;28;20582;-74
2021/03/16 11:28:24;;;;;;;2.77;1.60;;;;;;;13.06;38.79;96091.34;6907474;28;20220;-74
2021/03/16 11:31:47;;;;;;;3.67;1.60;;;;;;;13.28;37.67;96090.34;6911800;28;20246;-75
2021/03/16 11:35:09;;;;;;;3.43;1.60;;;;;;;12.92;37.36;96089.00;6919162;28;20211;-74
2021/03/16 11:38:29;;;;;;;2.93;1.70;;;;;;;12.30;37.97;96104.91;6912517;28;20969;-74
2021/03/16 11:41:49;;;;;;;3.70;1.63;;;;;;;11.85;39.07;96097.03;6907331;28;20231;-74
2021/03/16 11:45:10;;;;;;;3.77;2.00;;;;;;;11.72;39.73;96098.09;6909422;28;20228;-73
2021/03/16 11:48:31;;;;;;;4.13;1.80;;;;;;;11.77;40.74;96096.78;6891580;28;20293;-74
2021/03/16 11:51:51;;;;;;;4.77;1.93;;;;;;;11.76;40.36;96089.78;6899717;28;20216;-71
2021/03/16 11:55:12;;;;;;;3.97;3.17;;;;;;;11.63;40.70;96097.00;6906944;28;20224;-72
2021/03/16 11:58:33;;;;;;;3.83;2.60;;;;;;;11.66;41.02;96093.28;6912125;28;20216;-72
2021/03/16 12:01:54;;;;;;;6.07;1.93;;;;;;;11.53;41.25;96083.59;6919985;28;20700;-73
2021/03/16 12:05:14;;;;;;;3.03;1.60;;;;;;;11.17;40.86;96092.63;6904907;28;20208;-74
2021/03/16 12:08:34;;;;;;;3.87;1.83;;;;;;;11.10;41.95;96087.94;6890231;28;20220;-72
2021/03/16 12:11:55;;;;;;;2.87;1.30;;;;;;;11.04;41.13;96091.06;6913595;28;20223;-72
2021/03/16 12:15:17;;;;;;;2.40;1.30;;;;;;;10.70;41.35;96091.00;6911005;28;20306;-73
2021/03/16 12:18:38;;;;;;;2.50;2.03;;;;;;;10.68;40.93;96084.09;6904525;28;20614;-74
2021/03/16 12:21:58;;;;;;;2.77;1.50;;;;;;;10.98;41.90;96089.72;6880644;28;20775;-73
2021/03/16 12:25:20;;;;;;;2.23;1.70;;;;;;;11.28;41.24;96091.81;6913781;28;20213;-73
2021/03/16 12:28:41;;;;;;;2.50;1.43;;;;;;;11.02;41.05;96074.38;6914060;28;20223;-73
2021/03/16 12:32:01;;;;;;;3.57;1.87;;;;;;;10.92;41.50;96074.25;6910307;28;20295;-74
2021/03/16 12:35:22;;;;;;;3.70;1.50;;;;;;;10.87;40.77;96078.22;6906807;28;20230;-73
2021/03/16 12:38:42;;;;;;;2.10;1.70;;;;;;;10.79;41.51;96064.69;6892009;28;20219;-72
2021/03/16 12:42:06;;;;;;;3.20;1.43;;;;;;;10.59;41.72;96072.38;6869255;28;20224;-73
2021/03/16 12:45:29;;;;;;;3.03;1.60;;;;;;;10.71;42.04;96070.59;6891507;28;20221;-73
2021/03/16 12:48:49;;;;;;;5.37;2.13;;;;;;;10.66;42.27;96073.56;6894506;28;20253;-73
2021/03/16 12:52:10;;;;;;;3.37;1.60;;;;;;;10.69;42.98;96076.03;6899586;28;20225;-73
2021/03/16 12:55:31;;;;;;;1.70;1.33;;;;;;;10.58;42.88;96068.00;6910787;28;20597;-72
2021/03/16 12:58:52;;;;;;;4.67;1.70;;;;;;;10.36;42.48;96064.44;6891109;28;20224;-71
2021/03/16 13:02:13;;;;;;;3.13;2.27;;;;;;;10.16;42.70;96063.28;6889725;28;20247;-71
2021/03/16 13:05:35;;;;;;;2.63;1.80;;;;;;;10.30;43.15;96061.28;6883624;28;20674;-72
2021/03/16 13:08:56;;;;;;;2.30;1.40;;;;;;;10.30;42.98;96071.91;6888073;28;20227;-71
2021/03/16 13:12:17;;;;;;;2.70;1.43;;;;;;;10.08;43.47;96068.25;6883143;28;20233;-71
2021/03/16 13:15:39;;;;;;;3.20;1.53;;;;;;;9.93;43.25;96049.03;6884187;28;20313;-72
2021/03/16 13:18:59;;;;;;;5.23;2.03;;;;;;;9.62;43.75;96050.41;6889334;28;20291;-72
2021/03/16 13:22:19;;;;;;;2.57;1.80;;;;;;;9.63;44.18;96044.16;6887356;28;20222;-72
2021/03/16 13:25:40;;;;;;;2.67;1.80;;;;;;;9.67;44.00;96052.72;6886021;28;20225;-70
2021/03/16 13:29:01;;;;;;;2.53;2.03;;;;;;;9.81;44.33;96048.09;6904939;28;20826;-72
2021/03/16 13:32:21;;;;;;;4.00;1.80;;;;;;;10.02;44.34;96047.47;6905015;28;20232;-72
2021/03/16 13:35:42;;;;;;;2.87;1.90;;;;;;;9.96;44.31;96040.00;6905457;28;20224;-72
2021/03/16 13:39:03;;;;;;;4.03;1.93;;;;;;;10.24;44.36;96039.66;6907855;28;20222;-72
2021/03/16 13:42:28;;;;;;;2.80;1.90;;;;;;;10.21;44.53;96046.03;6912910;28;20696;-72
2021/03/16 13:45:49;;;;;;;3.63;2.03;;;;;;;10.40;44.79;96040.22;6899485;28;20998;-72
2021/03/16 13:49:09;;;;;;;2.77;1.97;;;;;;;10.09;44.26;96038.97;6911882;28;20759;-71
2021/03/16 13:52:30;;;;;;;2.47;1.57;;;;;;;9.67;44.97;96048.25;6903404;28;20286;-72
2021/03/16 13:55:51;;;;;;;2.20;2.00;;;;;;;9.44;45.40;96065.84;6915024;28;20595;-72
2021/03/16 13:59:11;;;;;;;4.87;1.93;;;;;;;9.43;46.22;96063.28;6917681;28;20772;-72
2021/03/16 14:02:32;;;;;;;3.10;2.20;;;;;;;9.32;49.52;96071.16;6917813;28;20225;-72
2021/03/16 14:05:52;;;;;;;2.10;1.90;;;;;;;9.28;50.69;96064.38;6912461;28;20268;-72
2021/03/16 14:09:13;;;;;;;2.53;1.43;;;;;;;9.40;50.58;96059.06;6920532;28;20230;-72
2021/03/16 14:12:33;;;;;;;1.93;1.30;;;;;;;9.44;50.06;96055.25;6915146;28;20232;-70
2021/03/16 14:15:56;;;;;;;3.23;1.80;;;;;;;9.47;49.22;96051.50;6912778;28;20229;-70
2021/03/16 14:19:16;;;;;;;3.10;1.63;;;;;;;9.58;48.38;96050.75;6904450;28;20231;-70
2021/03/16 14:22:39;;;;;;;2.23;1.50;;;;;;;9.54;47.98;96054.56;6902096;28;20229;-70
2021/03/16 14:25:59;;;;;;;2.47;1.40;;;;;;;9.51;47.81;96052.13;6915295;28;20217;-70
2021/03/16 14:29:20;;;;;;;1.73;1.63;;;;;;;9.45;47.96;96049.00;6919666;28;20237;-71
2021/03/16 14:32:40;;;;;;;2.20;1.70;;;;;;;9.62;48.21;96053.06;6912032;28;20224;-71
2021/03/16 14:36:01;;;;;;;2.77;1.90;;;;;;;9.81;49.11;96048.09;6916540;28;20259;-70
2021/03/16 14:39:21;;;;;;;3.57;2.10;;;;;;;9.70;47.69;96041.91;6909882;28;20250;-71
2021/03/16 14:42:41;;;;;;;3.27;1.73;;;;;;;9.73;47.16;96042.53;6914887;28;20249;-70
2021/03/16 14:46:02;;;;;;;1.70;1.60;;;;;;;9.87;47.17;96038.84;6906005;28;20225;-70
2021/03/16 14:49:22;;;;;;;2.97;1.87;;;;;;;9.96;47.09;96024.91;6904777;28;20226;-71
2021/03/16 14:52:43;;;;;;;4.53;2.30;;;;;;;10.04;46.12;96013.72;6901675;28;20220;-71
2021/03/16 14:56:04;;;;;;;3.10;1.93;;;;;;;9.95;46.53;96014.41;6909829;28;20224;-71
2021/03/16 14:59:24;;;;;;;4.10;2.03;;;;;;;9.76;45.56;96009.59;6914108;28;20245;-72
2021/03/16 15:02:44;;;;;;;3.50;2.00;;;;;;;9.64;46.15;96007.88;6909509;28;20225;-71
2021/03/16 15:06:05;;;;;;;1.93;1.83;;;;;;;9.61;46.25;96006.28;6909708;28;20236;-72
2021/03/16 15:09:27;;;;;;;2.17;1.80;;;;;;;9.47;45.90;96006.44;6908225;28;20707;-74
2021/03/16 15:12:47;;;;;;;2.50;1.77;;;;;;;9.51;46.56;96005.25;6905365;28;20729;-73
2021/03/16 15:16:08;;;;;;;3.00;1.97;;;;;;;9.46;46.27;96002.94;6917310;28;20213;-71
2021/03/16 15:19:28;;;;;;;3.60;2.37;;;;;;;9.35;46.20;95999.38;6891012;28;20253;-72
2021/03/16 15:22:49;;;;;;;2.33;1.90;;;;;;;9.20;46.69;95995.19;6882382;28;20217;-73
2021/03/16 15:26:10;;;;;;;4.80;2.30;;;;;;;9.20;46.64;95998.69;6891605;28;20708;-71
2021/03/16 15:29:31;;;;;;;6.80;4.80;;;;;;;9.25;47.39;95993.91;6890257;28;20269;-70
2021/03/16 15:32:51;;;;;;;3.37;2.10;;;;;;;9.33;47.69;95990.69;6897870;28;20221;-71
2021/03/16 15:36:12;;;;;;;2.20;1.93;;;;;;;9.28;47.73;96003.44;6907366;28;20226;-73
2021/03/16 15:39:35;;;;;;;2.50;2.30;;;;;;;9.31;48.07;95997.88;6904368;28;20226;-70
2021/03/16 15:42:55;;;;;;;2.97;1.90;;;;;;;9.34;47.66;96003.00;6905931;28;20293;-72
2021/03/16 15:46:16;;;;;;;2.43;1.80;;;;;;;9.17;47.59;95998.03;6923733;28;20264;-73
2021/03/16 15:49:36;;;;;;;3.27;2.37;;;;;;;9.03;47.68;96007.81;6910564;28;20233;-73
2021/03/16 15:52:57;;;;;;;2.47;1.30;;;;;;;8.82;48.33;96011.13;6903373;28;20694;-73
2021/03/16 15:56:18;;;;;;;1.83;1.53;;;;;;;8.58;49.15;96011.03;6908893;28;20227;-71
2021/03/16 15:59:38;;;;;;;2.37;1.37;;;;;;;8.13;50.32;96017.63;6909349;28;20221;-71